Terminal Aerodrome Forecast
Issued by NWS

Home | Current Version | Previous Version | Graphics & Text | Print | Product List | Glossary On
Versions: 1 2 3 4 5 6 7 8 9 10 11 12 13 14 15
000
FTUS43 KGRB 192321
TAFCWA
TAF
KCWA 192321Z 2000/2024 22010KT P6SM BKN250 WS018/26050KT
     FM200200 26006KT P6SM BKN200 WS018/26040KT
     FM200600 28004KT P6SM BKN150=

USA.gov is the U.S. government's official web portal to all federal, state and local government web resources and services.